Time;durP1;ratioP1;P1;durP2;ratioP2;P2;SDS_P1;SDS_P2;PMS_P1;PMS_P2;Temp;Humidity;BMP_temperature;BMP_pressure;BME280_temperature;BME280_humidity;BME280_pressure;Samples;Min_cycle;Max_cycle;Signal;HPM_P1;HPM_P2
2023/12/22 00:00:37;;;;;;;5.63;0.98;;;6.90;99.90;;;;;;4870075;29;20060;-76
2023/12/22 00:03:03;;;;;;;5.57;1.55;;;6.90;99.90;;;;;;4853050;29;20060;-79
2023/12/22 00:05:29;;;;;;;5.05;1.10;;;6.80;99.90;;;;;;4836927;29;20053;-77
2023/12/22 00:07:55;;;;;;;8.50;1.02;;;6.60;99.90;;;;;;4906360;29;20323;-76
2023/12/22 00:10:21;;;;;;;5.63;1.20;;;6.60;99.90;;;;;;4889658;29;20303;-76
2023/12/22 00:12:47;;;;;;;5.07;1.15;;;6.60;99.90;;;;;;4902053;29;20092;-73
2023/12/22 00:15:12;;;;;;;3.97;1.23;;;6.60;99.90;;;;;;4889247;29;20064;-74
2023/12/22 00:17:41;;;;;;;8.15;1.48;;;6.70;99.90;;;;;;4906895;29;20052;-77
2023/12/22 00:20:09;;;;;;;;;;;6.70;99.90;;;;;;4890111;29;20045;-76
2023/12/22 00:22:35;;;;;;;6.40;1.52;;;6.80;99.90;;;;;;4889956;29;19907;-76
2023/12/22 00:25:00;;;;;;;9.45;1.85;;;6.90;99.90;;;;;;4905957;29;20028;-77
2023/12/22 00:27:26;;;;;;;10.68;2.10;;;7.00;99.90;;;;;;4890353;29;20111;-76
2023/12/22 00:29:52;;;;;;;6.60;1.77;;;7.10;99.90;;;;;;4886223;29;20121;-75
2023/12/22 00:32:18;;;;;;;10.98;2.20;;;7.20;99.90;;;;;;4882189;29;20037;-75
2023/12/22 00:34:44;;;;;;;11.35;2.25;;;7.20;99.90;;;;;;4887794;29;20048;-76
2023/12/22 00:37:17;;;;;;;8.45;2.22;;;7.20;99.90;;;;;;4857013;29;20118;-76
2023/12/22 00:39:42;;;;;;;5.03;1.83;;;7.20;99.90;;;;;;4835062;29;20633;-75
2023/12/22 00:42:37;;;;;;;5.20;1.08;;;7.20;99.90;;;;;;4871348;29;20044;-73
2023/12/22 00:45:03;;;;;;;5.70;0.90;;;6.50;99.90;;;;;;4871069;29;20080;-72
2023/12/22 00:51:20;;;;;;;6.88;1.23;;;6.50;99.90;;;;;;4906283;29;20036;-72
2023/12/22 00:53:45;;;;;;;8.63;1.17;;;6.60;99.90;;;;;;4906506;29;20021;-72
2023/12/22 00:56:13;;;;;;;7.90;1.60;;;6.60;99.90;;;;;;4906070;29;20100;-71
2023/12/22 00:58:39;;;;;;;5.37;1.03;;;6.70;99.90;;;;;;4906667;29;20275;-70
2023/12/22 01:01:05;;;;;;;4.40;0.98;;;6.60;99.90;;;;;;4874026;29;20036;-72
2023/12/22 01:03:31;;;;;;;5.05;1.23;;;6.70;99.90;;;;;;4889764;29;20029;-72
2023/12/22 01:06:07;;;;;;;3.17;0.98;;;6.60;99.90;;;;;;4901915;29;20077;-71
2023/12/22 01:08:33;;;;;;;4.43;1.73;;;6.70;99.90;;;;;;4874544;29;20186;-72
2023/12/22 01:10:59;;;;;;;5.30;1.27;;;6.70;99.90;;;;;;4889873;29;20036;-71
2023/12/22 01:13:25;;;;;;;7.32;1.77;;;6.70;99.90;;;;;;4889806;29;20192;-71
2023/12/22 01:15:51;;;;;;;6.43;1.27;;;6.70;99.90;;;;;;4906267;29;20104;-74
2023/12/22 01:18:20;;;;;;;7.28;2.05;;;6.70;99.90;;;;;;4889257;29;20057;-73
2023/12/22 01:20:52;;;;;;;9.13;2.33;;;6.70;99.90;;;;;;4887695;29;20100;-73
2023/12/22 01:23:17;;;;;;;8.77;1.58;;;6.80;99.90;;;;;;4858813;29;20052;-74
2023/12/22 01:25:44;;;;;;;11.57;2.20;;;6.80;99.90;;;;;;4887889;29;20029;-72
2023/12/22 01:28:20;;;;;;;7.68;1.88;;;6.80;99.90;;;;;;4859163;29;20336;-74
2023/12/22 01:30:46;;;;;;;11.60;1.80;;;6.80;99.90;;;;;;4859149;29;20315;-74
2023/12/22 01:33:11;;;;;;;8.95;1.70;;;6.80;99.90;;;;;;4890647;29;20032;-73
2023/12/22 01:35:37;;;;;;;9.10;1.83;;;6.70;99.90;;;;;;4891040;29;20029;-74
2023/12/22 01:38:03;;;;;;;7.60;1.50;;;6.80;99.90;;;;;;4893881;29;20063;-74
2023/12/22 01:40:31;;;;;;;7.72;1.65;;;6.70;99.90;;;;;;4909680;29;20032;-73
2023/12/22 01:42:57;;;;;;;8.38;1.98;;;6.60;99.90;;;;;;4909728;29;20184;-73
2023/12/22 01:45:23;;;;;;;5.15;1.00;;;6.60;99.90;;;;;;4909319;29;20043;-73
2023/12/22 01:47:49;;;;;;;4.38;0.98;;;6.60;99.90;;;;;;4909636;29;20112;-73
2023/12/22 01:50:21;;;;;;;6.85;1.55;;;6.60;99.90;;;;;;4909275;29;20028;-74
2023/12/22 01:52:47;;;;;;;4.95;1.08;;;6.60;99.90;;;;;;4909265;29;20107;-72
2023/12/22 01:55:22;;;;;;;3.83;0.80;;;6.60;99.90;;;;;;4891372;29;20092;-74
2023/12/22 01:57:51;;;;;;;5.55;0.80;;;6.50;99.90;;;;;;4889479;29;20108;-74
2023/12/22 02:00:17;;;;;;;5.22;0.75;;;6.50;99.90;;;;;;4889268;29;20105;-75
2023/12/22 02:02:42;;;;;;;4.43;0.50;;;6.50;99.90;;;;;;4890606;29;20211;-74
2023/12/22 02:05:15;;;;;;;3.78;1.05;;;6.50;99.90;;;;;;4874272;29;20039;-73
2023/12/22 02:07:42;;;;;;;3.17;0.57;;;6.50;99.90;;;;;;4874183;29;20021;-73
2023/12/22 02:10:11;;;;;;;2.33;0.40;;;6.50;99.90;;;;;;4889909;29;20025;-74
2023/12/22 02:12:37;;;;;;;3.65;0.40;;;6.50;99.90;;;;;;4893631;29;20334;-75
2023/12/22 02:15:05;;;;;;;4.05;0.88;;;6.50;99.90;;;;;;4907462;29;20032;-73
2023/12/22 02:17:42;;;;;;;2.45;0.77;;;6.50;99.90;;;;;;4909407;29;20129;-73
2023/12/22 02:20:09;;;;;;;3.85;0.60;;;6.60;99.90;;;;;;4908814;29;20040;-74
2023/12/22 02:22:35;;;;;;;3.05;0.63;;;6.60;99.90;;;;;;4909115;29;20052;-74
2023/12/22 02:25:04;;;;;;;3.40;0.50;;;6.50;99.90;;;;;;4908565;29;20024;-73
2023/12/22 02:27:50;;;;;;;2.30;0.50;;;6.60;99.90;;;;;;4892442;29;20041;-74
2023/12/22 02:30:38;;;;;;;2.20;0.50;;;6.60;99.90;;;;;;4905004;29;20084;-74
2023/12/22 02:33:12;;;;;;;3.42;0.60;;;6.60;99.90;;;;;;4908366;29;20029;-73
2023/12/22 02:35:41;;;;;;;4.20;0.68;;;6.70;99.90;;;;;;4907606;29;20033;-74
2023/12/22 02:38:18;;;;;;;2.53;0.40;;;6.60;99.90;;;;;;4907739;29;20311;-75
2023/12/22 02:41:08;;;;;;;4.40;0.77;;;6.60;99.90;;;;;;4894675;29;20035;-74
2023/12/22 02:43:35;;;;;;;4.88;0.70;;;6.70;99.90;;;;;;4908346;29;20040;-75
2023/12/22 02:46:01;;;;;;;5.82;0.70;;;6.60;99.90;;;;;;4896338;29;20037;-74
2023/12/22 02:48:55;;;;;;;5.40;0.80;;;6.80;99.90;;;;;;4889398;29;20052;-73
2023/12/22 02:51:21;;;;;;;5.20;0.82;;;6.80;99.90;;;;;;4904267;29;20103;-74
2023/12/22 02:54:07;;;;;;;3.78;0.80;;;6.80;99.90;;;;;;4908265;29;20025;-75
2023/12/22 02:56:33;;;;;;;3.67;0.80;;;6.70;99.90;;;;;;4908346;29;20037;-74
2023/12/22 02:58:58;;;;;;;6.50;0.80;;;6.80;99.90;;;;;;4908289;29;20113;-75
2023/12/22 03:01:24;;;;;;;6.95;0.70;;;6.80;99.90;;;;;;4903341;29;20021;-75
2023/12/22 03:03:50;;;;;;;7.28;1.23;;;6.80;99.90;;;;;;4908020;29;20044;-74
2023/12/22 03:06:15;;;;;;;3.95;0.73;;;6.80;99.90;;;;;;4908118;29;20083;-74
2023/12/22 03:08:41;;;;;;;6.05;0.80;;;7.00;99.90;;;;;;4908331;29;20034;-75
2023/12/22 03:11:06;;;;;;;6.60;0.80;;;7.20;99.90;;;;;;4891147;29;20095;-73
2023/12/22 03:13:32;;;;;;;2.50;0.50;;;7.40;99.90;;;;;;4907771;29;20047;-73
2023/12/22 03:15:58;;;;;;;3.33;0.80;;;7.60;99.90;;;;;;4908187;29;20108;-74
2023/12/22 03:18:23;;;;;;;4.78;0.85;;;7.70;99.90;;;;;;4907470;29;20092;-74
2023/12/22 03:20:49;;;;;;;3.83;0.70;;;7.80;99.90;;;;;;4894128;29;20120;-74
2023/12/22 03:23:15;;;;;;;8.65;0.75;;;7.90;99.90;;;;;;4889192;29;20037;-75
2023/12/22 03:25:40;;;;;;;5.22;0.70;;;8.10;99.90;;;;;;4888262;29;20049;-73
2023/12/22 03:28:07;;;;;;;4.70;0.57;;;8.30;99.90;;;;;;4887693;29;20263;-75
2023/12/22 03:30:32;;;;;;;4.78;0.80;;;8.40;99.90;;;;;;4888872;29;20096;-75
2023/12/22 03:32:58;;;;;;;5.38;0.60;;;8.50;99.90;;;;;;4889061;29;20033;-74
2023/12/22 03:35:33;;;;;;;4.47;0.57;;;8.60;99.90;;;;;;4888860;29;20208;-75
2023/12/22 03:37:58;;;;;;;6.57;0.80;;;8.70;99.90;;;;;;4892368;29;20055;-74
2023/12/22 03:40:28;;;;;;;5.68;0.75;;;8.70;99.90;;;;;;4872074;29;20041;-74
2023/12/22 03:42:54;;;;;;;6.30;0.90;;;8.70;99.90;;;;;;4889020;29;20017;-75
2023/12/22 03:45:20;;;;;;;3.80;0.60;;;8.60;99.90;;;;;;4887666;29;20101;-75
2023/12/22 03:47:45;;;;;;;6.30;1.00;;;8.60;99.90;;;;;;4888007;29;20044;-74
2023/12/22 03:50:11;;;;;;;2.80;0.60;;;8.60;99.90;;;;;;4880132;29;20040;-76
2023/12/22 03:52:37;;;;;;;3.80;0.73;;;8.60;99.90;;;;;;4907154;29;20039;-74
2023/12/22 03:55:17;;;;;;;;;;;8.60;99.90;;;;;;4887309;29;20096;-76
2023/12/22 03:57:43;;;;;;;5.05;0.70;;;8.60;99.90;;;;;;4887402;29;20251;-75
2023/12/22 04:00:13;;;;;;;3.42;0.77;;;8.60;99.90;;;;;;4890403;29;20037;-73
2023/12/22 04:02:39;;;;;;;5.18;0.90;;;8.50;99.90;;;;;;4907404;29;20016;-75
2023/12/22 04:05:12;;;;;;;2.25;1.00;;;8.10;99.90;;;;;;4906935;29;20032;-75
2023/12/22 04:07:58;;;;;;;3.75;1.13;;;7.80;99.90;;;;;;4907169;29;20028;-77
2023/12/22 04:10:23;;;;;;;4.18;1.15;;;7.40;99.90;;;;;;4890221;29;20116;-75
2023/12/22 04:13:09;;;;;;;5.15;0.75;;;7.20;99.90;;;;;;4894645;29;20052;-75
2023/12/22 04:15:38;;;;;;;5.75;1.02;;;7.00;99.90;;;;;;4910655;29;20080;-76
2023/12/22 04:18:08;;;;;;;6.47;1.42;;;7.00;99.90;;;;;;4909698;29;20048;-73
2023/12/22 04:20:34;;;;;;;4.43;1.05;;;7.00;99.90;;;;;;4891883;29;20103;-75
2023/12/22 04:22:59;;;;;;;8.63;1.17;;;6.90;99.90;;;;;;4907659;29;20095;-73
2023/12/22 04:25:25;;;;;;;8.57;1.80;;;6.80;99.90;;;;;;4906694;29;20040;-75
2023/12/22 04:28:06;;;;;;;7.95;1.02;;;6.70;99.90;;;;;;4905383;29;20024;-74
2023/12/22 04:30:32;;;;;;;6.88;1.17;;;6.80;99.90;;;;;;4876484;29;20033;-74
2023/12/22 04:36:26;;;;;;;5.22;0.85;;;6.90;99.90;;;;;;4830633;29;20039;-74
2023/12/22 04:38:52;;;;;;;6.05;0.90;;;7.00;99.90;;;;;;4831192;29;20251;-74
2023/12/22 04:41:17;;;;;;;5.90;1.23;;;7.00;99.90;;;;;;4830853;29;20075;-73
2023/12/22 04:43:46;;;;;;;4.45;1.20;;;7.20;99.90;;;;;;4830957;29;20106;-73
2023/12/22 04:46:41;;;;;;;4.40;0.68;;;7.30;99.90;;;;;;4815499;29;20232;-75
2023/12/22 04:49:07;;;;;;;3.00;0.68;;;7.40;99.90;;;;;;4802916;29;20250;-75
2023/12/22 04:51:39;;;;;;;4.93;0.90;;;7.50;99.90;;;;;;4849385;29;20030;-76
2023/12/22 05:02:01;;;;;;;5.32;0.77;;;7.50;99.90;;;;;;4797693;29;20042;-75
2023/12/22 05:04:26;;;;;;;4.22;0.63;;;7.50;99.90;;;;;;4796493;30;20043;-74
2023/12/22 05:07:06;;;;;;;5.60;0.73;;;7.40;99.90;;;;;;4783277;30;20112;-75
2023/12/22 05:09:33;;;;;;;6.22;0.85;;;7.60;99.90;;;;;;4779869;30;20056;-75
2023/12/22 05:12:07;;;;;;;3.28;1.10;;;7.60;99.90;;;;;;4786656;29;20055;-75
2023/12/22 05:14:33;;;;;;;3.80;0.70;;;7.80;99.90;;;;;;4815789;29;20034;-74
2023/12/22 05:16:59;;;;;;;6.15;0.77;;;7.80;99.90;;;;;;4800721;29;20101;-77
2023/12/22 05:19:25;;;;;;;4.47;0.90;;;7.80;99.90;;;;;;4815748;29;20039;-75
2023/12/22 05:21:52;;;;;;;7.20;0.85;;;8.00;99.90;;;;;;4816802;29;20038;-75
2023/12/22 05:24:18;;;;;;;8.55;1.60;;;8.10;99.90;;;;;;4832119;29;20050;-75
2023/12/22 05:26:43;;;;;;;5.55;1.00;;;8.10;99.90;;;;;;4833899;29;20026;-75
2023/12/22 05:29:33;;;;;;;6.10;1.08;;;8.10;99.90;;;;;;4834085;29;20030;-76
2023/12/22 05:31:59;;;;;;;7.43;1.40;;;8.10;99.90;;;;;;4890670;29;20057;-76
2023/12/22 05:34:25;;;;;;;5.05;1.23;;;8.20;99.90;;;;;;4908976;29;20087;-77
2023/12/22 05:36:50;;;;;;;7.68;1.23;;;8.30;99.90;;;;;;4893301;29;20100;-75
2023/12/22 05:39:17;;;;;;;7.78;1.27;;;8.30;99.90;;;;;;4882565;29;20028;-77
2023/12/22 05:41:49;;;;;;;10.50;2.03;;;8.20;99.90;;;;;;4874839;29;20319;-74
2023/12/22 05:44:15;;;;;;;8.38;1.52;;;8.10;99.90;;;;;;4857451;29;20087;-75
2023/12/22 05:46:41;;;;;;;8.82;1.10;;;7.90;99.90;;;;;;4890934;29;20311;-75
2023/12/22 05:49:06;;;;;;;8.63;1.42;;;7.80;99.90;;;;;;4890498;29;20319;-74
2023/12/22 05:51:42;;;;;;;9.35;1.48;;;7.80;99.90;;;;;;4909327;29;20046;-75
2023/12/22 05:54:12;;;;;;;10.38;1.73;;;7.80;99.90;;;;;;4877466;29;20362;-75
2023/12/22 05:56:41;;;;;;;8.00;1.67;;;7.90;99.90;;;;;;4889253;29;20033;-73
2023/12/22 05:59:06;;;;;;;7.90;1.50;;;8.00;99.90;;;;;;4890989;29;20342;-74
2023/12/22 06:01:36;;;;;;;9.18;1.52;;;8.10;99.90;;;;;;4890375;29;20394;-75
2023/12/22 06:04:02;;;;;;;8.23;1.30;;;8.20;99.90;;;;;;4874282;29;20319;-74
2023/12/22 06:06:38;;;;;;;7.97;1.30;;;8.30;99.90;;;;;;4890436;29;20020;-76
2023/12/22 06:09:18;;;;;;;;;;;;;;;;;;;;;
2023/12/22 06:12:17;;;;;;;7.47;1.23;;;8.40;99.90;;;;;;4879421;29;20063;-77
2023/12/22 06:14:45;;;;;;;9.55;1.52;;;8.50;99.90;;;;;;4888815;29;20117;-73
2023/12/22 06:17:11;;;;;;;6.68;1.40;;;8.60;99.90;;;;;;4890382;29;20049;-75
2023/12/22 06:19:36;;;;;;;8.05;1.38;;;8.70;99.90;;;;;;4889970;29;20036;-76
2023/12/22 06:22:10;;;;;;;5.60;1.17;;;8.60;99.90;;;;;;4890557;29;20227;-75
2023/12/22 06:24:39;;;;;;;10.50;1.20;;;8.70;99.90;;;;;;4889143;29;20057;-73
2023/12/22 06:27:11;;;;;;;7.13;1.38;;;8.60;99.90;;;;;;4890435;29;20037;-76
2023/12/22 06:29:41;;;;;;;5.88;1.60;;;8.50;99.90;;;;;;4894309;29;20032;-74
2023/12/22 06:32:32;;;;;;;6.03;0.93;;;8.60;99.90;;;;;;4882227;29;20028;-77
2023/12/22 06:35:23;;;;;;;8.87;2.37;;;8.60;99.90;;;;;;4889724;29;20142;-77
2023/12/22 06:37:51;;;;;;;7.28;1.38;;;8.70;99.90;;;;;;4858173;29;20040;-78
2023/12/22 06:40:20;;;;;;;10.60;1.50;;;8.70;99.90;;;;;;4889547;29;20113;-75
2023/12/22 06:42:46;;;;;;;7.75;1.10;;;8.70;99.90;;;;;;4889929;29;20037;-75
2023/12/22 06:45:55;;;;;;;10.80;1.33;;;8.70;99.90;;;;;;4892688;29;20275;-77
2023/12/22 06:48:54;;;;;;;9.52;1.30;;;8.60;99.90;;;;;;4864113;29;20330;-78
2023/12/22 06:51:26;;;;;;;5.75;1.60;;;8.60;99.90;;;;;;4888624;29;20345;-75
2023/12/22 06:54:02;;;;;;;5.97;1.30;;;8.70;99.90;;;;;;4891480;29;20224;-77
2023/12/22 06:56:41;;;;;;;7.50;1.50;;;8.70;99.90;;;;;;4907892;29;20099;-77
2023/12/22 06:59:07;;;;;;;5.20;1.25;;;8.80;99.90;;;;;;4891626;29;20044;-75
2023/12/22 07:01:36;;;;;;;7.10;1.27;;;8.80;99.90;;;;;;4903279;29;20033;-76
2023/12/22 07:04:06;;;;;;;5.05;0.90;;;8.80;99.90;;;;;;4908205;29;20105;-75
2023/12/22 07:06:33;;;;;;;7.18;1.05;;;8.80;99.90;;;;;;4907758;29;20028;-76
2023/12/22 07:09:11;;;;;;;5.95;1.00;;;8.80;99.90;;;;;;4907056;29;20307;-76
2023/12/22 07:11:42;;;;;;;4.72;1.15;;;8.80;99.90;;;;;;4891317;29;20104;-74
2023/12/22 07:14:08;;;;;;;4.80;1.00;;;8.70;99.90;;;;;;4908265;29;20077;-76
2023/12/22 07:16:43;;;;;;;3.20;1.00;;;8.60;99.90;;;;;;4907254;29;20044;-75
2023/12/22 07:19:10;;;;;;;7.85;1.08;;;8.70;99.90;;;;;;4908261;29;20334;-75
2023/12/22 07:21:40;;;;;;;8.80;0.93;;;8.70;99.90;;;;;;4893743;29;20097;-75
2023/12/22 07:24:11;;;;;;;5.07;1.02;;;8.70;99.90;;;;;;4857400;29;20029;-74
2023/12/22 07:26:37;;;;;;;6.07;1.38;;;8.60;99.90;;;;;;4888656;29;20033;-74
2023/12/22 07:32:00;;;;;;;7.72;1.02;;;8.70;99.90;;;;;;4881223;29;20235;-76
2023/12/22 07:34:26;;;;;;;5.93;0.95;;;8.60;99.90;;;;;;4888538;29;20032;-75
2023/12/22 07:36:53;;;;;;;8.38;1.30;;;8.50;99.90;;;;;;4890806;29;20017;-73
2023/12/22 07:39:28;;;;;;;7.18;1.17;;;8.50;99.90;;;;;;4890527;29;20072;-76
2023/12/22 07:41:54;;;;;;;9.70;1.48;;;8.50;99.90;;;;;;4888039;29;20375;-76
2023/12/22 07:44:19;;;;;;;6.93;1.35;;;8.60;99.90;;;;;;4888525;29;20048;-75
2023/12/22 07:47:11;;;;;;;6.65;1.10;;;8.60;99.90;;;;;;4889001;29;20101;-76
2023/12/22 07:49:37;;;;;;;7.80;1.10;;;8.70;99.90;;;;;;4876554;29;20327;-78
2023/12/22 07:52:02;;;;;;;7.57;1.00;;;8.60;99.90;;;;;;4906277;29;20171;-77
2023/12/22 07:54:28;;;;;;;5.85;1.08;;;8.60;99.90;;;;;;4890675;29;20021;-78
2023/12/22 07:56:54;;;;;;;10.20;1.58;;;8.60;99.90;;;;;;4896002;29;20108;-78
2023/12/22 07:59:19;;;;;;;6.68;0.90;;;8.60;99.90;;;;;;4888695;29;20048;-76
2023/12/22 08:01:45;;;;;;;6.78;1.70;;;8.60;99.90;;;;;;4889249;29;20205;-78
2023/12/22 08:04:11;;;;;;;5.90;1.63;;;8.60;99.90;;;;;;4871977;29;20032;-76
2023/12/22 08:06:36;;;;;;;7.25;1.35;;;8.50;99.90;;;;;;4886993;29;20096;-78
2023/12/22 08:09:06;;;;;;;6.00;1.20;;;8.40;99.90;;;;;;4872387;29;20065;-75
2023/12/22 08:11:31;;;;;;;7.82;1.00;;;8.20;99.90;;;;;;4886857;29;20041;-76
2023/12/22 08:13:58;;;;;;;7.30;1.05;;;8.00;99.90;;;;;;4892544;29;20032;-76
2023/12/22 08:19:32;;;;;;;5.28;0.90;;;7.50;99.90;;;;;;4906811;29;20051;-74
2023/12/22 08:21:58;;;;;;;5.75;1.08;;;7.30;99.90;;;;;;4907501;29;20327;-76
2023/12/22 08:24:24;;;;;;;9.65;1.08;;;7.20;99.90;;;;;;4906521;29;20071;-75
2023/12/22 08:26:50;;;;;;;5.13;0.93;;;7.20;99.90;;;;;;4875286;29;20032;-76
2023/12/22 08:29:28;;;;;;;7.45;1.30;;;7.10;99.90;;;;;;4907233;29;20029;-75
2023/12/22 08:32:06;;;;;;;5.88;1.23;;;7.00;99.90;;;;;;4898450;29;20081;-75
2023/12/22 08:54:09;;;;;;;11.73;2.03;;;7.30;99.90;;;;;;4779798;30;20225;-76
2023/12/22 08:56:47;;;;;;;6.50;1.83;;;7.40;99.90;;;;;;4766281;30;20064;-76
2023/12/22 09:04:07;;;;;;;10.90;1.60;;;7.50;99.90;;;;;;4783929;29;20138;-75
2023/12/22 09:10:03;;;;;;;11.93;1.83;;;7.70;99.90;;;;;;4725277;30;20074;-75
2023/12/22 09:12:53;;;;;;;12.35;2.15;;;7.70;99.90;;;;;;4722666;30;20218;-76
2023/12/22 09:15:19;;;;;;;12.82;1.80;;;7.80;99.90;;;;;;4762247;30;20060;-75
2023/12/22 09:18:06;;;;;;;12.85;2.08;;;7.90;99.90;;;;;;4792662;30;20053;-78
2023/12/22 09:20:32;;;;;;;11.48;1.80;;;7.90;99.90;;;;;;4798117;30;20092;-77
2023/12/22 09:22:58;;;;;;;9.07;1.90;;;8.00;99.90;;;;;;4789699;29;20224;-76
2023/12/22 09:25:36;;;;;;;12.00;1.92;;;8.10;99.90;;;;;;4811350;29;20023;-77
2023/12/22 09:28:14;;;;;;;14.75;1.88;;;8.10;99.90;;;;;;4782682;30;20050;-77
2023/12/22 09:30:40;;;;;;;10.60;2.33;;;8.10;99.90;;;;;;4815329;29;20043;-77
2023/12/22 09:33:15;;;;;;;7.43;1.67;;;8.20;99.90;;;;;;4815704;29;20023;-75
2023/12/22 09:35:41;;;;;;;11.13;2.03;;;8.40;99.90;;;;;;4800572;29;20251;-75
2023/12/22 09:38:56;;;;;;;15.15;2.28;;;8.50;99.90;;;;;;4803381;29;20034;-76
2023/12/22 09:41:28;;;;;;;11.57;2.00;;;8.60;99.90;;;;;;4846988;29;20037;-77
2023/12/22 09:47:18;;;;;;;10.95;2.00;;;8.80;99.90;;;;;;4820782;29;20412;-78
2023/12/22 09:49:57;;;;;;;7.43;1.48;;;8.90;99.90;;;;;;4892136;29;20061;-77
2023/12/22 09:52:33;;;;;;;10.98;2.13;;;8.90;99.90;;;;;;4892443;29;20047;-78
2023/12/22 09:55:15;;;;;;;12.75;2.08;;;8.90;99.90;;;;;;4892956;29;20049;-75
2023/12/22 09:57:46;;;;;;;12.07;1.80;;;8.90;99.90;;;;;;4904931;29;20029;-78
2023/12/22 10:01:04;;;;;;;9.05;1.60;;;9.00;99.90;;;;;;4890489;29;20052;-77
2023/12/22 10:03:34;;;;;;;12.60;2.03;;;9.00;99.90;;;;;;4853870;29;20268;-78
2023/12/22 10:06:10;;;;;;;14.88;2.90;;;9.00;99.90;;;;;;4850289;29;20037;-78
2023/12/22 10:11:43;;;;;;;13.98;2.10;;;9.10;99.90;;;;;;4873509;29;20029;-77
2023/12/22 10:14:10;;;;;;;12.63;1.73;;;9.10;99.90;;;;;;4873549;29;20049;-79
2023/12/22 10:16:39;;;;;;;12.60;2.88;;;9.10;99.90;;;;;;4894377;29;20044;-78
2023/12/22 10:19:06;;;;;;;12.43;2.10;;;9.10;99.90;;;;;;4892272;29;20319;-77
2023/12/22 10:21:41;;;;;;;14.23;2.30;;;9.10;99.90;;;;;;4908341;29;20024;-78
2023/12/22 10:24:07;;;;;;;11.07;2.08;;;9.10;99.90;;;;;;4908887;29;20040;-76
2023/12/22 10:26:42;;;;;;;15.65;2.20;;;9.20;99.90;;;;;;4891739;29;20033;-76
2023/12/22 10:29:08;;;;;;;8.18;1.80;;;9.20;99.90;;;;;;4891876;29;20041;-77
2023/12/22 10:31:40;;;;;;;10.63;1.88;;;9.20;99.90;;;;;;4874187;29;20044;-76
2023/12/22 10:34:06;;;;;;;10.57;2.30;;;9.20;99.90;;;;;;4892006;29;20032;-77
2023/12/22 10:36:38;;;;;;;9.63;1.90;;;9.30;99.90;;;;;;4889115;29;20059;-77
2023/12/22 10:39:04;;;;;;;13.45;2.55;;;9.40;99.90;;;;;;4888441;29;20107;-77
2023/12/22 10:41:38;;;;;;;12.98;1.95;;;9.40;99.90;;;;;;4889380;29;20029;-76
2023/12/22 10:44:30;;;;;;;11.25;1.80;;;9.40;99.90;;;;;;4875667;29;20035;-76
2023/12/22 10:46:56;;;;;;;9.05;1.98;;;9.40;99.90;;;;;;4883450;29;20224;-76
2023/12/22 10:49:25;;;;;;;12.48;2.53;;;9.40;99.90;;;;;;4890768;29;20025;-77
2023/12/22 10:51:52;;;;;;;12.20;2.83;;;9.40;99.90;;;;;;4891980;29;20017;-77
2023/12/22 10:54:18;;;;;;;8.50;1.65;;;9.40;99.90;;;;;;4891315;29;20337;-78
2023/12/22 10:56:44;;;;;;;7.53;1.58;;;9.40;99.90;;;;;;4875398;29;20033;-76
2023/12/22 10:59:30;;;;;;;5.30;1.65;;;9.40;99.90;;;;;;4907084;29;20341;-78
2023/12/22 11:02:18;;;;;;;9.10;1.50;;;9.40;99.90;;;;;;4887554;29;20048;-77
2023/12/22 11:05:18;;;;;;;10.13;1.75;;;9.30;99.90;;;;;;4856703;29;20092;-76
2023/12/22 11:07:58;;;;;;;8.07;1.58;;;9.30;99.90;;;;;;4856074;29;20037;-77
2023/12/22 11:10:27;;;;;;;10.13;1.58;;;9.20;99.90;;;;;;4872626;29;20025;-79
2023/12/22 11:12:57;;;;;;;6.90;1.48;;;9.30;99.90;;;;;;4889496;29;20025;-77
2023/12/22 11:15:27;;;;;;;6.35;1.20;;;9.20;99.90;;;;;;4889272;29;20057;-76
2023/12/22 11:18:02;;;;;;;6.43;1.08;;;9.10;99.90;;;;;;4894999;29;20036;-77
2023/12/22 11:20:32;;;;;;;6.63;1.10;;;9.00;99.90;;;;;;4907839;29;20040;-78
2023/12/22 11:23:00;;;;;;;5.10;0.98;;;9.00;99.90;;;;;;4908392;29;20362;-78
2023/12/22 11:25:29;;;;;;;5.30;1.35;;;9.00;99.90;;;;;;4888088;29;20060;-79
2023/12/22 11:28:00;;;;;;;6.30;1.45;;;8.90;99.90;;;;;;4907976;29;20033;-80
2023/12/22 11:30:39;;;;;;;8.35;1.27;;;8.80;99.90;;;;;;4890555;29;20037;-80
2023/12/22 11:33:07;;;;;;;4.43;0.73;;;8.70;99.90;;;;;;4908276;29;20036;-81
2023/12/22 11:35:34;;;;;;;;;;;8.60;99.90;;;;;;4883366;29;20028;-81
2023/12/22 11:40:53;;;;;;;4.50;1.00;;;8.40;99.90;;;;;;4896202;29;20047;-81
2023/12/22 11:43:29;;;;;;;7.45;1.05;;;8.30;99.90;;;;;;4890584;29;20219;-80
2023/12/22 11:46:03;;;;;;;3.20;0.80;;;8.30;99.90;;;;;;4890869;29;20052;-78
2023/12/22 11:48:48;;;;;;;7.45;0.93;;;8.30;99.90;;;;;;4875103;29;20063;-79
2023/12/22 11:51:15;;;;;;;4.32;0.82;;;8.20;99.90;;;;;;4876097;29;20032;-79
2023/12/22 12:00:53;;;;;;;;;;;;;;;;;;;;;
2023/12/22 12:03:23;;;;;;;5.40;1.05;;;7.90;99.90;;;;;;4891087;29;20204;-79
2023/12/22 12:06:08;;;;;;;3.83;0.90;;;7.80;99.90;;;;;;4875043;29;20031;-79
2023/12/22 12:08:34;;;;;;;4.07;0.85;;;7.80;99.90;;;;;;4890334;29;20043;-77
2023/12/22 12:11:03;;;;;;;3.78;0.80;;;7.80;99.90;;;;;;4870964;29;20037;-79
2023/12/22 12:13:31;;;;;;;3.05;0.60;;;7.80;99.90;;;;;;4872189;29;20041;-78
2023/12/22 12:16:33;;;;;;;3.97;0.70;;;7.80;99.90;;;;;;4906061;29;20044;-79
2023/12/22 12:19:14;;;;;;;3.47;0.57;;;7.90;99.90;;;;;;4886676;29;20048;-79
2023/12/22 12:21:55;;;;;;;3.88;0.70;;;7.80;99.90;;;;;;4890456;29;20100;-80
2023/12/22 12:24:28;;;;;;;3.70;0.65;;;7.80;99.90;;;;;;4907560;29;20104;-80
2023/12/22 12:26:54;;;;;;;3.75;1.00;;;7.90;99.90;;;;;;4889885;29;20060;-81
2023/12/22 12:29:33;;;;;;;2.58;0.60;;;7.90;99.90;;;;;;4889556;29;20028;-80
2023/12/22 12:32:15;;;;;;;3.13;0.70;;;7.90;99.90;;;;;;4907093;29;20086;-80
2023/12/22 12:34:50;;;;;;;2.67;0.45;;;8.00;99.90;;;;;;4890064;29;20052;-80
2023/12/22 12:37:47;;;;;;;2.35;0.70;;;8.00;99.90;;;;;;4905734;29;20063;-79
2023/12/22 12:40:39;;;;;;;2.57;0.60;;;8.00;99.90;;;;;;4877192;29;20033;-78
2023/12/22 12:43:43;;;;;;;3.78;0.73;;;8.00;99.90;;;;;;4872596;29;20470;-79
2023/12/22 12:46:43;;;;;;;2.90;0.50;;;8.00;99.90;;;;;;4863840;29;20330;-79
2023/12/22 12:49:46;;;;;;;2.28;0.38;;;8.00;99.90;;;;;;4867703;29;20050;-80
2023/12/22 12:56:29;;;;;;;2.72;0.55;;;8.10;99.90;;;;;;4894203;29;20137;-80
2023/12/22 12:59:44;;;;;;;2.47;0.50;;;8.10;99.90;;;;;;4887111;29;20263;-80
2023/12/22 13:02:35;;;;;;;3.03;0.63;;;8.10;99.90;;;;;;4871652;29;20029;-79
2023/12/22 13:05:32;;;;;;;2.65;0.50;;;8.10;99.90;;;;;;4896545;29;20035;-80
2023/12/22 13:08:12;;;;;;;2.67;0.73;;;8.10;99.90;;;;;;4906511;29;20036;-80
2023/12/22 13:10:38;;;;;;;3.13;0.60;;;8.20;99.90;;;;;;4871509;29;20343;-80
2023/12/22 13:13:23;;;;;;;1.40;0.40;;;8.20;99.90;;;;;;4894084;29;20028;-81
2023/12/22 13:15:54;;;;;;;3.38;0.70;;;8.30;99.90;;;;;;4901466;29;20029;-80
2023/12/22 13:18:32;;;;;;;1.02;0.30;;;8.30;99.90;;;;;;4907027;29;20029;-79
2023/12/22 13:20:59;;;;;;;;;;;8.50;99.90;;;;;;4890737;29;20041;-82
2023/12/22 13:23:28;;;;;;;1.38;0.50;;;8.50;99.90;;;;;;4893451;29;19930;-81
2023/12/22 13:25:54;;;;;;;1.80;0.63;;;8.60;99.90;;;;;;4910562;29;20079;-79
2023/12/22 13:28:29;;;;;;;1.83;0.25;;;8.70;99.90;;;;;;4910512;29;20192;-79
2023/12/22 13:33:40;;;;;;;1.40;0.40;;;8.90;99.90;;;;;;4904149;29;20032;-80
2023/12/22 13:36:07;;;;;;;0.30;0.10;;;9.00;99.90;;;;;;4875118;29;20128;-79
2023/12/22 13:38:36;;;;;;;0.70;0.20;;;9.20;99.90;;;;;;4890986;29;20025;-80
2023/12/22 13:41:03;;;;;;;0.88;0.20;;;9.50;99.90;;;;;;4890854;29;20044;-81
2023/12/22 13:46:18;;;;;;;0.40;0.17;;;9.70;99.90;;;;;;4902145;29;19914;-81
2023/12/22 13:48:46;;;;;;;0.93;0.25;;;9.80;99.90;;;;;;4894126;29;20318;-80
2023/12/22 13:51:13;;;;;;;1.10;0.20;;;9.80;99.90;;;;;;4903740;29;20035;-78
2023/12/22 13:53:50;;;;;;;0.90;0.27;;;9.80;99.90;;;;;;4904896;29;20052;-82
2023/12/22 13:56:36;;;;;;;0.63;0.20;;;10.00;99.90;;;;;;5128502;23;20495;-78
2023/12/22 13:59:02;;;;;;;1.05;0.20;;;10.00;99.90;;;;;;4953500;28;20040;-79
2023/12/22 14:01:47;;;;;;;1.10;0.30;;;10.10;99.90;;;;;;4931246;29;20035;-80
2023/12/22 14:04:13;;;;;;;2.15;0.30;;;10.10;99.90;;;;;;4948656;29;20050;-77
2023/12/22 14:06:45;;;;;;;0.65;0.13;;;10.20;99.90;;;;;;4927582;29;20032;-80
2023/12/22 14:09:24;;;;;;;1.02;0.20;;;10.20;99.90;;;;;;4910885;29;20043;-81
2023/12/22 14:11:50;;;;;;;1.42;0.30;;;10.20;99.90;;;;;;4927628;29;20203;-80
2023/12/22 14:14:47;;;;;;;0.93;0.20;;;10.30;99.90;;;;;;4931258;29;20031;-78
2023/12/22 14:17:28;;;;;;;0.88;0.30;;;10.30;99.90;;;;;;4931719;29;20030;-78
2023/12/22 14:20:00;;;;;;;0.50;0.10;;;10.30;99.90;;;;;;4914999;29;20222;-79
2023/12/22 14:22:26;;;;;;;0.70;0.20;;;10.30;99.90;;;;;;4930778;29;20043;-78
2023/12/22 14:24:52;;;;;;;0.80;0.20;;;10.30;99.90;;;;;;4942458;29;20043;-79
2023/12/22 14:27:23;;;;;;;0.85;0.20;;;10.30;99.90;;;;;;4938563;29;20082;-78
2023/12/22 14:29:49;;;;;;;1.00;0.20;;;10.40;99.90;;;;;;4928112;29;20032;-78
2023/12/22 14:32:19;;;;;;;0.15;0.10;;;10.40;99.90;;;;;;4928182;29;20027;-80
2023/12/22 14:34:53;;;;;;;0.68;0.20;;;10.40;99.90;;;;;;4927297;29;20302;-80
2023/12/22 14:40:43;;;;;;;0.55;0.20;;;10.40;99.90;;;;;;4928621;29;20036;-78